首页
METAR-TAF:

METAR-TAF

机场 :

沈阳桃仙国际机场

沈阳, 中华人民共和国

纬度: 41-48N, 经度: 123-24E, 海拔: 35米

当前天气观测

该预报发布于29分钟前的02:00 UTC
风速6节,风向西南
温度 27°C
湿度 79%
气压 1010 hPa
能见度10公里或以上
少量云层高于3300英尺

METAR: ZYTX 190200Z 22003MPS 9999 FEW033 27/23 Q1010 NOSIG

时间: 10:29 (02:29 UTC)

预报

该预报发布于7小时和26分钟前的19:03 UTC
预报有效从19日的 00点(UTC)到 19日的 24点(UTC)
风速8节,风向
能見度: 6000

TAF: ZYTX 181903Z 1900/1924 19004MPS 6000 NSC TX29/1906Z TN21/1921Z

超过4000个机场的气象观测和天气预报(METAR&TAF报告)。

可查询的气象台以黄色和红色小点在地图上表示。

将鼠标移到小点上方,可查看气象台名称。

然后点击查看天气观测和预报。

如需切换地图:点击带黑十字的绿色按钮放大地图;点击带横线的绿色按钮缩小地图;或者点击绿色箭头查看邻近地区的地图。


METAR-TAF: